Time;durP1;ratioP1;P1;durP2;ratioP2;P2;SDS_P1;SDS_P2;PMS_P1;PMS_P2;Temp;Humidity;BMP_temperature;BMP_pressure;BME280_temperature;BME280_humidity;BME280_pressure;Samples;Min_cycle;Max_cycle;Signal;HPM_P1;HPM_P2
2022/10/29 00:01:43;;;;;;;35.57;14.83;;;;;;;8.70;81.41;95982.84;5040815;28;20199;-82
2022/10/29 00:04:09;;;;;;;30.40;16.27;;;;;;;8.83;81.16;95992.78;5038946;28;20179;-81
2022/10/29 00:06:34;;;;;;;31.10;15.07;;;;;;;8.83;81.51;95987.53;5042846;28;20168;-81
2022/10/29 00:08:59;;;;;;;29.33;13.20;;;;;;;8.45;81.67;95926.22;5054588;28;20164;-82
2022/10/29 00:11:25;;;;;;;32.57;13.17;;;;;;;8.83;81.26;95986.72;5054423;28;20163;-81
2022/10/29 00:13:56;;;;;;;27.47;13.13;;;;;;;8.81;81.15;95978.22;5053760;28;20519;-82
2022/10/29 00:16:25;;;;;;;27.10;12.70;;;;;;;8.74;81.01;95966.75;5053284;28;20714;-82
2022/10/29 00:18:50;;;;;;;25.23;11.23;;;;;;;8.70;81.23;95972.34;5035549;28;20767;-81
2022/10/29 00:21:18;;;;;;;24.73;11.57;;;;;;;8.70;81.28;95982.84;5053502;28;20277;-82
2022/10/29 00:23:45;;;;;;;20.87;10.60;;;;;;;8.66;81.39;95976.31;5053211;28;20178;-82
2022/10/29 00:26:10;;;;;;;26.87;11.17;;;;;;;8.53;81.28;95962.91;5049053;28;20666;-82
2022/10/29 00:28:36;;;;;;;20.37;9.97;;;;;;;8.58;81.64;95976.34;5044617;28;20207;-82
2022/10/29 00:31:07;;;;;;;19.07;9.10;;;;;;;8.07;81.63;95890.28;5040579;28;20184;-82
2022/10/29 00:33:32;;;;;;;19.23;9.27;;;;;;;8.50;81.88;95959.81;5043092;28;20167;-82
2022/10/29 00:36:00;;;;;;;17.13;8.87;;;;;;;8.56;81.71;95969.66;5037106;28;20187;-82
2022/10/29 00:38:27;;;;;;;19.27;8.87;;;;;;;8.52;81.53;95963.09;5041262;28;20180;-82
2022/10/29 00:40:53;;;;;;;15.83;8.03;;;;;;;8.45;81.59;95959.50;5044158;28;20218;-82
2022/10/29 00:43:21;;;;;;;21.60;10.47;;;;;;;8.46;81.82;95967.22;5040193;28;20176;-82
2022/10/29 00:45:54;;;;;;;20.97;8.63;;;;;;;8.47;82.04;95968.03;5038136;28;20180;-81
2022/10/29 00:48:22;;;;;;;14.47;8.27;;;;;;;8.46;82.02;95961.97;5031609;28;20183;-82
2022/10/29 00:50:48;;;;;;;18.00;9.30;;;;;;;8.40;82.36;95959.19;5032708;28;20180;-81
2022/10/29 00:53:17;;;;;;;19.60;9.27;;;;;;;8.00;81.82;95895.38;5033012;28;20167;-82
2022/10/29 00:55:43;;;;;;;25.07;9.67;;;;;;;8.40;81.68;95959.19;5033101;28;20698;-82
2022/10/29 00:58:09;;;;;;;22.53;10.70;;;;;;;8.12;82.08;95922.06;5032693;28;20262;-82
2022/10/29 01:00:34;;;;;;;20.03;9.27;;;;;;;8.05;81.84;95910.59;5033228;28;20214;-82
2022/10/29 01:03:00;;;;;;;16.53;8.20;;;;;;;8.08;82.01;95924.19;5032900;28;20187;-82
2022/10/29 01:05:27;;;;;;;14.80;7.33;;;;;;;8.25;81.76;95952.00;5032786;28;20313;-82
2022/10/29 01:07:53;;;;;;;14.80;8.10;;;;;;;8.12;83.22;95954.34;5032625;28;20221;-82
2022/10/29 01:10:36;;;;;;;15.90;7.27;;;;;;;7.71;83.65;95892.50;5032886;28;20246;-82
2022/10/29 01:13:33;;;;;;;9.80;5.90;;;;;;;8.00;83.98;95923.41;5032455;28;20543;-82
2022/10/29 01:16:10;;;;;;;14.10;5.33;;;;;;;7.98;84.41;95934.06;5032723;28;20184;-81
2022/10/29 01:19:08;;;;;;;12.37;6.27;;;;;;;7.95;84.73;95935.22;5032738;28;20587;-82
2022/10/29 01:21:45;;;;;;;12.90;6.90;;;;;;;8.04;84.09;95937.81;5031794;28;21017;-82
2022/10/29 01:24:29;;;;;;;14.20;6.73;;;;;;;8.06;83.04;95936.66;5032881;28;20168;-82
2022/10/29 01:27:13;;;;;;;11.43;6.23;;;;;;;8.08;82.53;95931.25;5032354;28;20589;-82
2022/10/29 01:29:57;;;;;;;11.90;6.70;;;;;;;7.68;82.56;95874.50;5032888;28;20233;-82
2022/10/29 01:32:54;;;;;;;8.63;5.70;;;;;;;7.71;82.29;95874.16;5032476;28;20163;-82
2022/10/29 01:35:42;;;;;;;13.33;7.57;;;;;;;7.86;82.72;95896.09;5032431;28;20633;-82
2022/10/29 01:38:11;;;;;;;19.37;10.03;;;;;;;8.11;82.83;95933.53;5023035;28;20258;-82
2022/10/29 01:40:39;;;;;;;32.97;17.03;;;;;;;8.05;83.48;95935.00;5042682;28;20219;-82
2022/10/29 01:43:13;;;;;;;49.70;28.37;;;;;;;8.03;83.50;95930.94;5038430;28;20234;-82
2022/10/29 01:45:53;;;;;;;36.80;18.77;;;;;;;7.80;83.87;95902.81;5041756;28;20567;-82
2022/10/29 01:48:25;;;;;;;30.90;16.70;;;;;;;8.03;84.09;95934.38;5042913;28;20167;-81
2022/10/29 01:50:53;;;;;;;37.40;17.77;;;;;;;8.08;83.82;95928.63;5034358;28;20233;-82
2022/10/29 01:53:20;;;;;;;28.63;18.23;;;;;;;7.85;83.94;95887.41;5032573;28;20553;-82
2022/10/29 01:55:45;;;;;;;32.13;20.47;;;;;;;8.14;83.09;95922.69;5036877;28;20282;-82
2022/10/29 01:58:12;;;;;;;35.60;20.23;;;;;;;8.08;82.73;95916.31;5046043;28;20690;-81
2022/10/29 02:00:59;;;;;;;31.77;17.13;;;;;;;8.13;82.13;95924.50;5046351;28;20175;-81
2022/10/29 02:03:55;;;;;;;24.07;14.47;;;;;;;8.06;82.03;95915.66;5041630;28;20650;-82
2022/10/29 02:06:32;;;;;;;34.70;15.07;;;;;;;8.01;82.84;95915.38;5055825;28;20182;-82
2022/10/29 02:09:06;;;;;;;29.47;15.87;;;;;;;7.97;82.77;95921.94;5056385;28;20178;-82
2022/10/29 02:12:09;;;;;;;24.43;14.33;;;;;;;7.98;82.58;95918.31;5055833;28;20162;-82
2022/10/29 02:14:42;;;;;;;27.83;15.23;;;;;;;7.96;82.24;95918.47;5046635;28;20218;-82
2022/10/29 02:17:07;;;;;;;32.77;16.30;;;;;;;7.88;82.44;95904.59;5037709;28;20171;-82
2022/10/29 02:19:34;;;;;;;29.37;17.20;;;;;;;7.72;82.64;95878.41;5055898;28;20277;-82
2022/10/29 02:22:00;;;;;;;31.50;16.60;;;;;;;7.90;82.42;95911.28;5053971;28;20221;-82
2022/10/29 02:24:26;;;;;;;33.50;16.80;;;;;;;7.83;82.54;95917.38;5055772;28;20285;-82
2022/10/29 02:26:51;;;;;;;33.40;15.67;;;;;;;7.76;82.69;95917.25;5055624;28;20155;-82
2022/10/29 02:29:17;;;;;;;28.40;16.00;;;;;;;7.58;82.38;95895.66;5056045;28;20183;-82
2022/10/29 02:31:42;;;;;;;24.97;16.30;;;;;;;7.72;83.09;95910.69;5055979;28;20155;-82
2022/10/29 02:34:08;;;;;;;30.40;16.70;;;;;;;7.75;83.67;95912.16;5055393;28;20254;-82
2022/10/29 02:36:33;;;;;;;34.70;15.63;;;;;;;7.67;83.42;95899.91;5055258;28;20634;-82
2022/10/29 02:38:58;;;;;;;24.63;15.10;;;;;;;7.52;82.79;95888.47;5055796;28;20155;-82
2022/10/29 02:41:24;;;;;;;35.13;13.70;;;;;;;7.31;82.54;95846.25;5055093;28;20227;-82
2022/10/29 02:43:49;;;;;;;25.50;12.70;;;;;;;7.74;82.87;95907.91;5055345;28;20171;-82
2022/10/29 02:46:20;;;;;;;21.67;12.87;;;;;;;7.71;82.53;95901.19;5055163;28;20170;-82
2022/10/29 02:48:46;;;;;;;25.90;12.13;;;;;;;7.77;82.62;95910.19;5054947;28;20164;-82
2022/10/29 02:51:12;;;;;;;12.93;8.27;;;;;;;7.66;83.20;95886.97;5046018;28;20167;-82
2022/10/29 02:53:37;;;;;;;11.20;6.60;;;;;;;7.44;83.71;95851.78;5045795;28;20187;-82
2022/10/29 02:56:04;;;;;;;10.60;6.80;;;;;;;7.66;84.35;95902.69;5040709;28;20183;-82
2022/10/29 02:58:29;;;;;;;18.33;7.90;;;;;;;7.53;84.24;95888.28;5051388;28;20183;-82
2022/10/29 03:00:55;;;;;;;19.40;9.50;;;;;;;7.64;84.29;95905.47;5054713;28;20171;-82
2022/10/29 03:03:20;;;;;;;11.97;8.00;;;;;;;7.46;84.81;95899.59;5054743;28;20167;-82
2022/10/29 03:05:46;;;;;;;16.43;9.67;;;;;;;7.49;85.16;95907.13;5045872;28;20179;-82
2022/10/29 03:08:11;;;;;;;18.57;8.87;;;;;;;7.53;84.14;95909.22;5045499;28;20183;-82
2022/10/29 03:10:37;;;;;;;17.40;9.77;;;;;;;7.56;83.60;95908.91;5044346;28;20196;-82
2022/10/29 03:13:02;;;;;;;17.00;9.53;;;;;;;7.54;83.29;95902.19;5047242;28;20163;-82
2022/10/29 03:15:27;;;;;;;34.27;10.33;;;;;;;7.58;83.83;95909.56;5054544;28;20258;-82
2022/10/29 03:17:53;;;;;;;15.53;9.13;;;;;;;7.47;82.63;95888.94;5054603;28;20637;-82
2022/10/29 03:20:18;;;;;;;17.23;10.57;;;;;;;7.31;83.05;95862.78;5054514;28;20175;-82
2022/10/29 03:22:44;;;;;;;18.83;10.63;;;;;;;7.55;83.33;95898.59;5054379;28;20201;-82
2022/10/29 03:25:09;;;;;;;20.33;9.90;;;;;;;7.10;83.01;95834.47;5054364;28;20183;-82
2022/10/29 03:27:45;;;;;;;31.90;10.40;;;;;;;7.42;82.59;95896.50;5053137;28;20201;-82
2022/10/29 03:30:12;;;;;;;18.30;9.77;;;;;;;7.43;82.73;95898.13;5054355;28;20201;-82
2022/10/29 03:32:45;;;;;;;17.43;11.43;;;;;;;7.23;82.69;95877.69;5045188;28;20209;-82
2022/10/29 03:35:13;;;;;;;20.53;10.13;;;;;;;7.18;82.80;95873.75;5045106;28;20179;-82
2022/10/29 03:37:38;;;;;;;18.40;10.20;;;;;;;7.31;83.49;95893.38;5052734;28;20185;-82
2022/10/29 03:40:05;;;;;;;16.20;9.57;;;;;;;7.33;83.23;95888.81;5040447;28;20224;-82
2022/10/29 03:42:30;;;;;;;18.27;10.40;;;;;;;7.24;83.11;95876.69;5034081;28;20187;-82
2022/10/29 03:44:57;;;;;;;18.00;11.03;;;;;;;7.29;83.52;95885.69;5034095;28;20655;-82
2022/10/29 03:47:22;;;;;;;22.77;11.00;;;;;;;7.24;83.35;95882.75;5034340;28;20156;-82
2022/10/29 03:49:47;;;;;;;26.83;12.60;;;;;;;7.14;83.23;95863.78;5042972;28;20187;-83
2022/10/29 03:52:13;;;;;;;25.47;11.50;;;;;;;7.30;83.25;95889.13;5042614;28;20561;-83
2022/10/29 03:54:38;;;;;;;25.00;11.40;;;;;;;7.23;82.89;95890.78;5043581;28;20186;-81
2022/10/29 03:57:04;;;;;;;20.47;11.53;;;;;;;7.21;83.10;95888.31;5041831;28;20566;-81
2022/10/29 03:59:29;;;;;;;24.63;13.03;;;;;;;7.20;82.91;95890.13;5033826;28;20206;-82
2022/10/29 04:01:54;;;;;;;28.03;11.93;;;;;;;7.05;82.47;95873.44;5033776;28;20554;-81
2022/10/29 04:04:20;;;;;;;23.43;12.00;;;;;;;6.75;82.75;95833.00;5034050;28;20156;-81
2022/10/29 04:06:45;;;;;;;24.03;11.67;;;;;;;7.14;83.49;95889.97;5033766;28;20259;-82
2022/10/29 04:09:10;;;;;;;22.40;11.63;;;;;;;7.09;83.66;95882.56;5038673;28;20190;-82
2022/10/29 04:11:36;;;;;;;22.47;11.53;;;;;;;7.01;83.26;95861.63;5044332;28;20199;-81
2022/10/29 04:14:01;;;;;;;27.27;12.27;;;;;;;6.82;83.13;95835.81;5051145;28;20174;-82
2022/10/29 04:16:26;;;;;;;21.43;11.67;;;;;;;6.91;83.04;95863.63;5040908;28;20669;-82
2022/10/29 04:18:52;;;;;;;37.60;19.13;;;;;;;6.89;84.40;95889.13;5053341;28;20170;-82
2022/10/29 04:21:17;;;;;;;35.97;18.13;;;;;;;6.68;85.80;95896.63;5052735;28;20278;-82
2022/10/29 04:23:43;;;;;;;29.17;15.37;;;;;;;6.59;85.62;95897.56;5053564;28;20155;-81
2022/10/29 04:26:09;;;;;;;29.43;16.10;;;;;;;6.56;85.34;95883.03;5053197;28;20175;-82
2022/10/29 04:28:34;;;;;;;22.03;13.07;;;;;;;6.63;85.80;95898.91;5053449;28;20179;-82
2022/10/29 04:31:08;;;;;;;22.97;11.37;;;;;;;6.52;86.27;95893.97;5053683;28;20220;-82
2022/10/29 04:33:34;;;;;;;28.10;13.63;;;;;;;6.61;85.76;95891.22;5053249;28;20544;-82
2022/10/29 04:35:59;;;;;;;21.83;12.53;;;;;;;6.69;85.07;95901.69;5053419;28;20175;-82
2022/10/29 04:38:24;;;;;;;25.60;12.63;;;;;;;6.66;84.95;95894.16;5054400;28;20219;-82
2022/10/29 04:40:50;;;;;;;23.40;12.10;;;;;;;6.80;84.48;95905.81;5053258;28;20222;-82
2022/10/29 04:43:15;;;;;;;26.20;12.30;;;;;;;6.79;83.95;95909.41;5053592;28;20239;-82
2022/10/29 04:45:41;;;;;;;27.20;12.73;;;;;;;6.78;84.27;95911.19;5052646;28;20182;-82
2022/10/29 04:48:06;;;;;;;24.80;11.53;;;;;;;6.56;84.01;95871.75;5050828;28;20178;-82
2022/10/29 04:50:33;;;;;;;35.60;15.27;;;;;;;6.35;83.62;95852.09;5052702;28;20206;-82
2022/10/29 04:53:00;;;;;;;28.37;15.13;;;;;;;6.72;83.77;95918.88;5052844;28;20163;-82
2022/10/29 04:55:26;;;;;;;34.73;16.17;;;;;;;6.26;84.32;95850.44;5052626;28;20183;-82
2022/10/29 04:57:51;;;;;;;29.13;15.40;;;;;;;6.22;84.74;95841.28;5052650;28;20175;-82
2022/10/29 05:00:17;;;;;;;29.57;15.27;;;;;;;6.52;84.60;95881.72;5052512;28;20608;-81
2022/10/29 05:02:48;;;;;;;28.00;15.90;;;;;;;6.66;84.50;95898.59;5043646;28;20693;-84
2022/10/29 05:05:14;;;;;;;26.40;14.67;;;;;;;6.41;84.34;95859.28;5026040;28;20252;-84
2022/10/29 05:07:39;;;;;;;29.33;15.07;;;;;;;6.38;84.35;95858.81;5043829;28;21023;-82
2022/10/29 05:10:05;;;;;;;18.83;11.50;;;;;;;6.58;85.33;95890.69;5052673;28;20163;-83
2022/10/29 05:12:30;;;;;;;30.40;14.97;;;;;;;6.44;85.25;95866.81;5051187;28;20185;-83
2022/10/29 05:14:56;;;;;;;32.67;15.17;;;;;;;6.52;84.52;95875.66;5052449;28;20253;-84
2022/10/29 05:17:21;;;;;;;27.97;14.50;;;;;;;6.19;84.17;95823.28;5052635;28;20172;-84
2022/10/29 05:19:46;;;;;;;28.87;14.60;;;;;;;6.49;84.18;95860.31;5051159;28;20171;-86
2022/10/29 05:22:12;;;;;;;26.50;14.53;;;;;;;6.58;84.24;95864.53;5052400;28;20187;-85
2022/10/29 05:24:37;;;;;;;32.57;14.00;;;;;;;6.93;84.24;95911.38;5052675;28;20605;-83
2022/10/29 05:27:05;;;;;;;29.67;13.17;;;;;;;6.69;83.58;95861.63;5052605;28;20159;-83
2022/10/29 05:29:32;;;;;;;25.90;14.57;;;;;;;6.87;84.03;95887.66;5052744;28;20195;-84
2022/10/29 05:31:57;;;;;;;16.47;9.57;;;;;;;6.85;84.28;95866.88;5051002;28;20183;-83
2022/10/29 05:34:23;;;;;;;32.33;11.73;;;;;;;7.19;84.40;95900.75;5052159;28;20166;-83
2022/10/29 05:36:48;;;;;;;18.27;10.57;;;;;;;7.08;83.77;95873.13;5050701;28;20182;-82
2022/10/29 05:39:14;;;;;;;30.50;11.20;;;;;;;7.50;83.93;95920.06;5050805;28;20694;-85
2022/10/29 05:41:39;;;;;;;24.93;12.60;;;;;;;7.64;83.04;95912.50;5052111;28;20745;-85
2022/10/29 05:44:05;;;;;;;21.93;11.33;;;;;;;7.05;81.88;95776.56;5052142;28;20631;-85
2022/10/29 05:46:30;;;;;;;19.63;9.80;;;;;;;8.35;80.82;95930.84;5034007;28;20171;-84
2022/10/29 05:48:56;;;;;;;25.87;10.87;;;;;;;8.29;78.98;95876.44;5050742;28;20237;-84
2022/10/29 05:51:21;;;;;;;45.57;12.00;;;;;;;8.75;78.39;95910.63;5051810;28;20228;-84
2022/10/29 05:53:47;;;;;;;28.33;11.40;;;;;;;8.97;77.81;95938.75;5050756;28;20183;-82
2022/10/29 05:56:13;;;;;;;36.43;12.23;;;;;;;8.72;77.26;95884.75;5051745;28;20162;-83
2022/10/29 05:58:38;;;;;;;37.30;10.10;;;;;;;9.10;77.95;95928.47;5051516;28;20175;-82
2022/10/29 06:01:08;;;;;;;17.40;10.50;;;;;;;9.19;78.08;95881.94;5052099;28;20238;-81
2022/10/29 06:03:34;;;;;;;29.97;9.87;;;;;;;9.86;75.97;95939.84;5051816;28;20182;-81
2022/10/29 06:06:00;;;;;;;24.67;11.07;;;;;;;10.13;75.32;95942.66;5051859;28;20166;-84
2022/10/29 06:08:25;;;;;;;27.20;11.40;;;;;;;10.31;74.93;95933.63;5051718;28;20175;-80
2022/10/29 06:10:51;;;;;;;16.60;7.47;;;;;;;10.52;74.45;95945.06;5052029;28;20166;-80
2022/10/29 06:13:18;;;;;;;17.83;9.33;;;;;;;10.94;73.55;95948.78;5034010;28;20657;-83
2022/10/29 06:15:45;;;;;;;19.50;10.20;;;;;;;10.96;72.02;95888.81;5042799;28;20175;-81
2022/10/29 06:18:10;;;;;;;24.67;9.93;;;;;;;11.84;70.33;95942.97;5046741;28;20187;-80
2022/10/29 06:20:37;;;;;;;14.47;7.80;;;;;;;12.41;67.62;95932.97;5047963;28;20606;-80
2022/10/29 06:23:03;;;;;;;13.27;7.20;;;;;;;13.31;65.08;95963.66;5052454;28;20257;-80
2022/10/29 06:25:29;;;;;;;16.70;7.63;;;;;;;13.84;62.06;95918.69;5048831;28;20180;-83
2022/10/29 06:27:59;;;;;;;17.03;8.23;;;;;;;14.73;59.93;95966.66;5039251;28;20187;-81
2022/10/29 06:30:24;;;;;;;17.60;7.77;;;;;;;15.36;56.98;95958.84;5029782;28;20176;-83
2022/10/29 06:32:50;;;;;;;19.80;8.10;;;;;;;15.73;54.67;95906.75;5050825;28;20171;-83
2022/10/29 06:35:15;;;;;;;16.87;7.03;;;;;;;16.60;52.76;95905.69;5050236;28;20638;-84
2022/10/29 06:37:40;;;;;;;14.90;8.02;;;;;;;18.23;49.12;95940.88;5050208;28;20269;-86
2022/10/29 06:40:06;;;;;;;11.15;6.63;;;;;;;19.65;45.16;95941.13;5051236;28;20223;-83
2022/10/29 06:42:31;;;;;;;19.33;7.97;;;;;;;20.48;43.26;95940.38;5051739;28;20621;-86
2022/10/29 06:44:57;;;;;;;13.77;7.03;;;;;;;20.88;41.56;95888.44;5051373;28;20207;-86
2022/10/29 06:47:22;;;;;;;11.52;6.50;;;;;;;22.04;38.56;95903.03;5042709;28;20178;-86
2022/10/29 06:49:47;;;;;;;17.15;7.45;;;;;;;23.35;36.65;95899.44;5043766;28;20650;-85
2022/10/29 06:52:13;;;;;;;12.77;7.38;;;;;;;24.69;34.01;95919.66;5052723;28;20167;-86
2022/10/29 06:54:38;;;;;;;15.85;7.40;;;;;;;25.51;32.49;95910.16;5035376;28;20267;-86
2022/10/29 06:57:04;;;;;;;16.75;7.82;;;;;;;26.71;30.57;95908.72;5034625;28;20172;-86
2022/10/29 06:59:30;;;;;;;15.30;7.45;;;;;;;27.67;28.57;95904.03;5050852;28;20182;-86
2022/10/29 07:01:55;;;;;;;17.90;7.47;;;;;;;28.33;26.50;95892.97;5052712;28;20198;-87
2022/10/29 07:04:21;;;;;;;13.88;6.75;;;;;;;29.36;26.17;95952.34;5052821;28;20575;-87
2022/10/29 07:06:46;;;;;;;15.43;7.25;;;;;;;29.64;24.27;95930.31;5051441;28;20179;-87
2022/10/29 07:09:12;;;;;;;12.70;7.40;;;;;;;29.98;24.46;95927.13;5043665;28;20661;-87
2022/10/29 07:11:37;;;;;;;12.65;7.20;;;;;;;29.99;24.61;95923.28;5046958;28;20179;-87
2022/10/29 07:14:04;;;;;;;11.07;6.47;;;;;;;29.99;24.38;95912.44;5051422;28;20175;-87
2022/10/29 07:16:30;;;;;;;11.65;7.95;;;;;;;29.47;24.44;95938.28;5045635;28;20176;-87
2022/10/29 07:18:56;;;;;;;11.55;6.75;;;;;;;28.45;25.84;95933.94;5031053;28;20184;-87
2022/10/29 07:21:22;;;;;;;13.93;6.68;;;;;;;27.37;28.46;95937.69;5034042;28;20206;-87
2022/10/29 07:23:47;;;;;;;14.07;7.15;;;;;;;26.07;29.14;95911.69;5046798;28;20179;-87
2022/10/29 07:26:12;;;;;;;13.75;6.63;;;;;;;24.23;31.52;95894.69;5050140;28;20214;-86
2022/10/29 07:28:39;;;;;;;15.43;6.50;;;;;;;23.31;32.96;95899.16;5051030;28;20573;-87
2022/10/29 07:31:06;;;;;;;15.20;6.47;;;;;;;22.33;35.33;95881.22;5052080;28;20222;-85
2022/10/29 07:33:32;;;;;;;18.30;7.60;;;;;;;22.14;35.80;95954.06;5049992;28;20158;-85
2022/10/29 07:35:58;;;;;;;15.65;7.00;;;;;;;21.57;37.86;95959.16;5038703;28;20172;-85
2022/10/29 07:38:25;;;;;;;12.18;7.60;;;;;;;20.71;38.75;95902.69;5030985;28;20647;-85
2022/10/29 07:40:51;;;;;;;17.63;7.63;;;;;;;20.30;39.18;95889.78;5048497;28;20222;-85
2022/10/29 07:43:18;;;;;;;13.90;7.22;;;;;;;19.71;41.27;95950.06;5051882;28;20277;-84
2022/10/29 07:45:44;;;;;;;11.48;7.43;;;;;;;19.22;42.19;95941.66;5048201;28;20187;-84
2022/10/29 07:48:10;;;;;;;13.88;7.00;;;;;;;18.60;44.50;95896.09;5042329;28;20171;-85
2022/10/29 07:50:37;;;;;;;10.32;6.68;;;;;;;19.08;44.11;95943.00;5052081;28;20580;-85
2022/10/29 07:53:04;;;;;;;10.20;7.20;;;;;;;19.08;44.31;95949.13;5047923;28;20241;-85
2022/10/29 07:55:30;;;;;;;13.10;6.72;;;;;;;18.81;43.83;95886.66;5033798;28;20271;-85
2022/10/29 07:58:01;;;;;;;11.48;6.55;;;;;;;19.26;43.85;95931.31;5031975;28;20279;-85
2022/10/29 08:00:35;;;;;;;13.23;7.57;;;;;;;19.06;43.25;95934.41;5031686;28;20179;-85
2022/10/29 08:03:00;;;;;;;10.77;6.57;;;;;;;18.64;44.61;95904.47;5031574;28;20221;-85
2022/10/29 08:05:27;;;;;;;16.60;8.52;;;;;;;18.95;44.82;95940.56;5042333;28;20171;-85
2022/10/29 08:07:53;;;;;;;14.02;6.68;;;;;;;18.25;44.10;95845.47;5050006;28;20507;-85
2022/10/29 08:10:19;;;;;;;14.50;7.70;;;;;;;18.35;45.40;95885.69;5051597;28;20167;-85
2022/10/29 08:12:53;;;;;;;14.05;7.70;;;;;;;17.88;45.14;95849.44;5033691;28;20183;-83
2022/10/29 08:15:19;;;;;;;17.35;7.68;;;;;;;18.53;46.21;95924.72;5032695;28;20733;-85
2022/10/29 08:17:45;;;;;;;16.92;8.40;;;;;;;18.65;45.47;95920.22;5048241;28;20277;-86
2022/10/29 08:20:11;;;;;;;19.73;7.65;;;;;;;17.74;48.22;95883.47;5050044;28;20179;-84
2022/10/29 08:22:37;;;;;;;12.18;7.65;;;;;;;17.99;46.95;95881.41;5034337;28;20206;-84
2022/10/29 08:25:02;;;;;;;12.23;7.20;;;;;;;18.21;46.24;95916.28;5040189;28;20175;-84
2022/10/29 08:27:28;;;;;;;12.07;7.30;;;;;;;18.37;46.90;95888.13;5031148;28;20234;-85
2022/10/29 08:29:53;;;;;;;19.88;9.65;;;;;;;18.70;46.49;95900.84;5046842;28;20183;-85
2022/10/29 08:32:19;;;;;;;18.30;7.80;;;;;;;18.64;45.05;95889.25;5031282;28;20266;-85
2022/10/29 08:34:44;;;;;;;23.48;8.98;;;;;;;18.77;44.70;95888.16;5041929;28;20182;-84
2022/10/29 08:37:09;;;;;;;17.52;8.50;;;;;;;18.60;45.59;95860.63;5032959;28;20176;-84
2022/10/29 08:39:35;;;;;;;13.07;7.93;;;;;;;19.04;44.35;95896.44;5031059;28;20261;-84
2022/10/29 08:42:13;;;;;;;18.00;9.00;;;;;;;19.24;44.22;95910.19;5046029;28;20221;-84
2022/10/29 08:45:08;;;;;;;14.38;8.80;;;;;;;19.07;45.81;95906.66;5048592;28;20650;-85
2022/10/29 08:47:58;;;;;;;13.98;7.38;;;;;;;19.30;44.93;95906.56;5036346;28;20188;-84
2022/10/29 08:50:39;;;;;;;17.55;8.45;;;;;;;19.54;44.34;95885.94;5051025;28;20171;-84
2022/10/29 08:53:18;;;;;;;15.68;9.38;;;;;;;19.15;44.27;95877.72;5037833;28;20172;-85
2022/10/29 08:55:43;;;;;;;15.63;9.10;;;;;;;;;;5033176;28;20176;-85
2022/10/29 08:58:42;;;;;;;19.63;8.90;;;;;;;19.85;44.35;95892.56;5045333;28;20192;-84
2022/10/29 09:01:10;;;;;;;16.35;8.93;;;;;;;20.18;43.64;95894.41;5044001;28;20277;-85
2022/10/29 09:03:36;;;;;;;15.85;9.43;;;;;;;20.33;42.72;95879.38;5047685;28;20171;-85
2022/10/29 09:06:07;;;;;;;16.50;8.35;;;;;;;20.70;42.62;95897.56;5049482;28;20727;-85
2022/10/29 09:09:33;;;;;;;27.27;13.80;;;;;;;20.93;41.39;95901.88;5046099;28;20229;-85
2022/10/29 09:12:26;;;;;;;14.73;6.45;;;;;;;21.00;40.31;95889.94;5036744;28;20892;-85
2022/10/29 09:15:00;;;;;;;11.88;6.18;;;;;;;21.03;41.29;95892.09;5043653;28;20197;-87
2022/10/29 09:17:26;;;;;;;11.05;5.43;;;;;;;21.08;40.32;95891.34;5038196;28;20563;-87
2022/10/29 09:20:12;;;;;;;21.17;5.97;;;;;;;20.90;41.56;95895.16;5047911;28;20181;-85
2022/10/29 09:22:46;;;;;;;12.30;6.40;;;;;;;20.90;40.81;95889.00;5042727;28;20217;-85
2022/10/29 09:25:17;;;;;;;22.08;6.63;;;;;;;20.85;40.87;95880.88;5023301;28;20187;-84
2022/10/29 09:28:10;;;;;;;11.57;6.03;;;;;;;20.50;41.88;95825.88;5041200;28;20179;-86
2022/10/29 09:30:57;;;;;;;16.00;5.57;;;;;;;20.69;42.18;95874.53;5034555;28;20573;-85
2022/10/29 09:33:24;;;;;;;13.10;5.90;;;;;;;20.15;41.49;95833.41;5052461;28;20237;-86
2022/10/29 09:35:56;;;;;;;12.88;5.28;;;;;;;20.02;42.69;95863.16;5050670;28;20178;-84
2022/10/29 09:38:32;;;;;;;13.68;5.60;;;;;;;19.74;46.19;95866.72;5048869;28;20175;-85
2022/10/29 09:41:00;;;;;;;11.73;5.43;;;;;;;19.75;43.66;95861.16;5051414;28;20720;-83
2022/10/29 09:43:43;;;;;;;10.52;6.07;;;;;;;19.72;43.45;95858.94;5051216;28;20186;-83
2022/10/29 09:46:41;;;;;;;10.18;5.35;;;;;;;19.69;45.41;95851.44;5048783;28;20179;-82
2022/10/29 09:49:28;;;;;;;10.95;5.50;;;;;;;19.65;45.17;95846.81;5044672;28;20553;-81
2022/10/29 09:52:00;;;;;;;11.77;5.40;;;;;;;19.74;45.79;95848.84;5051171;28;20167;-81
2022/10/29 09:54:28;;;;;;;7.55;5.00;;;;;;;19.84;46.56;95832.97;5050230;28;20167;-81
2022/10/29 09:56:59;;;;;;;10.02;4.68;;;;;;;19.75;44.95;95789.00;5051482;28;20171;-82
2022/10/29 09:59:36;;;;;;;9.70;5.30;;;;;;;20.22;44.39;95842.06;5050259;28;20175;-81
2022/10/29 10:02:18;;;;;;;10.50;4.47;;;;;;;20.37;44.13;95839.63;5046111;28;20194;-81
2022/10/29 10:04:46;;;;;;;8.82;4.90;;;;;;;20.44;43.43;95826.06;5047436;28;20197;-81
2022/10/29 10:07:17;;;;;;;6.95;4.57;;;;;;;20.52;43.92;95829.13;5050790;28;20174;-81
2022/10/29 10:09:55;;;;;;;7.28;4.38;;;;;;;20.45;43.44;95822.34;5051118;28;20182;-81
2022/10/29 10:12:43;;;;;;;8.95;4.32;;;;;;;20.26;43.94;95813.75;5049686;28;20634;-82
2022/10/29 10:15:14;;;;;;;8.88;3.63;;;;;;;20.32;44.49;95813.56;5046424;28;20221;-81
2022/10/29 10:18:17;;;;;;;5.72;3.55;;;;;;;20.25;44.76;95798.78;5048443;28;20751;-82
2022/10/29 10:20:45;;;;;;;10.82;4.22;;;;;;;20.20;43.65;95804.06;5014895;28;20198;-82
2022/10/29 10:23:29;;;;;;;6.75;3.63;;;;;;;19.93;44.09;95745.16;5053407;28;20565;-81
2022/10/29 10:25:58;;;;;;;5.60;3.58;;;;;;;20.18;46.87;95792.78;5054457;28;20178;-82
2022/10/29 10:28:33;;;;;;;5.68;3.70;;;;;;;20.11;45.86;95781.47;5054760;28;20171;-83
2022/10/29 10:31:15;;;;;;;10.40;4.18;;;;;;;20.25;45.38;95780.84;5039050;28;20257;-82
2022/10/29 10:33:58;;;;;;;8.55;3.95;;;;;;;20.16;44.20;95781.53;5055381;28;20175;-82
2022/10/29 10:36:25;;;;;;;7.18;3.58;;;;;;;19.87;45.65;95736.28;5048175;28;20650;-82
2022/10/29 10:38:54;;;;;;;7.95;3.40;;;;;;;20.15;45.46;95771.91;5054101;28;20256;-82
2022/10/29 10:41:32;;;;;;;16.73;3.53;;;;;;;20.27;45.72;95767.25;5054866;28;20622;-82
2022/10/29 10:44:02;;;;;;;9.18;4.70;;;;;;;19.98;46.63;95698.97;5044111;28;20174;-81
2022/10/29 10:46:34;;;;;;;4.28;3.00;;;;;;;20.39;45.42;95759.13;5044317;28;20160;-82
2022/10/29 10:49:10;;;;;;;8.30;2.63;;;;;;;20.32;44.02;95743.25;5045445;28;20190;-82
2022/10/29 10:51:38;;;;;;;3.78;2.45;;;;;;;20.42;45.15;95750.59;5046150;28;20712;-81
2022/10/29 10:54:19;;;;;;;4.45;2.63;;;;;;;20.45;45.77;95747.44;5045987;28;20221;-82
2022/10/29 10:57:23;;;;;;;8.38;4.57;;;;;;;20.46;46.04;95741.03;5047054;28;20586;-81
2022/10/29 11:00:03;;;;;;;4.35;2.53;;;;;;;20.47;45.81;95738.09;5041095;28;20606;-82
2022/10/29 11:02:47;;;;;;;2.88;2.22;;;;;;;20.43;44.97;95728.13;5049857;28;20248;-82
2022/10/29 11:05:21;;;;;;;3.20;2.38;;;;;;;20.45;44.57;95739.41;5043656;28;20175;-82
2022/10/29 11:08:00;;;;;;;3.00;2.25;;;;;;;20.48;44.49;95729.03;5048958;28;20600;-82
2022/10/29 11:10:33;;;;;;;2.25;1.80;;;;;;;20.32;44.27;95705.81;5053787;28;20163;-82
2022/10/29 11:13:04;;;;;;;3.80;2.25;;;;;;;20.44;43.77;95725.22;5043800;28;20221;-82
2022/10/29 11:15:38;;;;;;;8.60;2.10;;;;;;;20.43;44.26;95720.91;5043477;28;20178;-81
2022/10/29 11:18:13;;;;;;;4.07;1.85;;;;;;;20.28;43.68;95702.00;5043754;28;20263;-82
2022/10/29 11:20:46;;;;;;;2.85;1.95;;;;;;;20.07;43.59;95708.97;5043635;28;20182;-82
2022/10/29 11:23:53;;;;;;;2.97;2.20;;;;;;;20.04;44.74;95698.78;5043266;28;20192;-82
2022/10/29 11:26:28;;;;;;;3.75;2.33;;;;;;;19.79;45.28;95667.22;5025997;28;20242;-83
2022/10/29 11:29:03;;;;;;;3.20;1.95;;;;;;;19.93;44.51;95695.19;5045635;28;20182;-82
2022/10/29 11:32:03;;;;;;;3.38;2.47;;;;;;;19.98;46.49;95689.88;5045421;28;20244;-82
2022/10/29 11:34:55;;;;;;;3.88;2.58;;;;;;;20.17;46.17;95689.56;5042055;28;20631;-82
2022/10/29 11:37:45;;;;;;;3.20;1.90;;;;;;;20.27;43.40;95682.47;5043694;28;20220;-82
2022/10/29 11:40:21;;;;;;;8.70;2.35;;;;;;;20.40;42.24;95686.66;5045014;28;20251;-82
2022/10/29 11:42:46;;;;;;;4.43;2.28;;;;;;;20.13;42.44;95640.34;5044166;28;20567;-82
2022/10/29 11:45:16;;;;;;;6.00;2.10;;;;;;;20.42;42.75;95670.34;5044683;28;20172;-81